Thunder radar more information blitzortung!


Radar de pluja more information rain snow radar


Visita la nostra xarxa de llocs de meteo:

Template documentation
and downloads

And another site



No particular awareness of the weather is required.    There are no Weather-warnings

Pagina Historial Weather Underground text

Diari Resum Setembre 12, 2017 Unitats:  Imperial    Mètric   Tant
« Previous Dia
SegĂźent Dia »
Diari Setmana Mensual Anual Personalitzada
  Maxima: Minima: Media:
Temperatura: TemperatureC °F 16.8 °F 21.5 °F
Punt de rosada: DewpointC °F 8.7 °F 12 °F
Humitat: Humidity % 33 % 56 %
Wind Speed: WindSpeedKMH mph 0.0 mph 4.8 mph
RĂ fegues de vent: WindSpeedGustKMH mph - -
Vent:- - SSW
Pression baro: PressurehPa in 1008.0 in -
Precipitacions: 0.0 in    
Historical Graphs
 
 
Dades de taula per Setembre 12, 2017
Temps Temperatura Punt de rosada Pression baro Vent Wind Speed RĂ fegues de vent Humitat Rainfall Rate (Hourly)
TemperatureC °F DewpointC °F PressurehPa in Calm     Humidity % HourlyPrecipMM in
00:00 17.7 °F 14.6 °F 1011.7 in Calm   3.2 mph 82 % 0.0 in
00:03 28.0 °F 10.7 °F 1008.0 in SW 11.9 mph 11.9 mph 34 % 0.0 in
00:08 28.0 °F 10.7 °F 1008.0 in SW 11.9 mph 11.9 mph 34 % 0.0 in
00:10 17.4 °F 13.9 °F 1010.7 in Calm   3.2 mph 80 % 0.0 in
00:13 28.0 °F 10.7 °F 1008.0 in SW 11.9 mph 11.9 mph 34 % 0.0 in
00:20 17.5 °F 14.2 °F 1010.7 in West 1.6 mph 3.2 mph 81 % 0.0 in
00:30 17.2 °F 13.7 °F 1011.7 in West 3.2 mph 3.2 mph 80 % 0.0 in
00:40 17.1 °F 13.4 °F 1011.7 in West 3.2 mph 3.2 mph 79 % 0.0 in
00:50 17.0 °F 12.9 °F 1011.7 in West 1.6 mph 1.6 mph 77 % 0.0 in
01:00 17.3 °F 12.8 °F 1011.7 in West 1.6 mph 3.2 mph 75 % 0.0 in
01:10 17.6 °F 12.5 °F 1011.7 in West 4.8 mph 6.4 mph 72 % 0.0 in
01:20 17.7 °F 12.2 °F 1011.7 in West 4.8 mph 4.8 mph 70 % 0.0 in
01:30 17.6 °F 11.8 °F 1011.7 in West 1.6 mph 3.2 mph 69 % 0.0 in
01:40 17.5 °F 11.5 °F 1010.7 in WSW 1.6 mph 4.8 mph 68 % 0.0 in
01:50 17.5 °F 11.3 °F 1010.7 in WSW 1.6 mph 3.2 mph 67 % 0.0 in
02:00 17.4 °F 11.2 °F 1011.7 in West 1.6 mph 4.8 mph 67 % 0.0 in
02:10 17.5 °F 11.1 °F 1010.7 in West 1.6 mph 3.2 mph 66 % 0.0 in
02:20 17.5 °F 11.1 °F 1010.7 in West 1.6 mph 3.2 mph 66 % 0.0 in
02:30 17.3 °F 10.7 °F 1011.7 in Calm   1.6 mph 65 % 0.0 in
02:40 17.4 °F 10.7 °F 1011.7 in WSW 1.6 mph 3.2 mph 65 % 0.0 in
02:50 17.6 °F 10.7 °F 1011.7 in Calm   3.2 mph 64 % 0.0 in
03:00 17.4 °F 10.5 °F 1012.8 in Calm   3.2 mph 64 % 0.0 in
03:10 17.4 °F 10.5 °F 1012.8 in SW 1.6 mph 3.2 mph 64 % 0.0 in
03:20 17.1 °F 10.2 °F 1012.8 in SW 1.6 mph 3.2 mph 64 % 0.0 in
03:30 17.4 °F 10.5 °F 1013.8 in WSW 1.6 mph 3.2 mph 64 % 0.0 in
03:40 17.6 °F 10.7 °F 1013.8 in SW 1.6 mph 3.2 mph 64 % 0.0 in
03:50 17.9 °F 11.0 °F 1013.8 in WSW 1.6 mph 3.2 mph 64 % 0.0 in
04:00 18.1 °F 10.7 °F 1013.8 in Calm   3.2 mph 62 % 0.0 in
04:10 18.3 °F 10.9 °F 1013.8 in SW 1.6 mph 3.2 mph 62 % 0.0 in
04:20 18.5 °F 11.1 °F 1013.8 in SW 1.6 mph 1.6 mph 62 % 0.0 in
04:30 18.5 °F 11.1 °F 1013.8 in SW 4.8 mph 6.4 mph 62 % 0.0 in
04:40 18.8 °F 11.1 °F 1013.8 in SW 3.2 mph 4.8 mph 61 % 0.0 in
04:50 19.2 °F 11.0 °F 1013.8 in SW 1.6 mph 3.2 mph 59 % 0.0 in
05:00 19.3 °F 11.1 °F 1013.8 in SW 1.6 mph 3.2 mph 59 % 0.0 in
05:10 20.1 °F 11.3 °F 1013.8 in SW 3.2 mph 4.8 mph 57 % 0.0 in
05:20 20.0 °F 10.9 °F 1013.8 in SW 3.2 mph 4.8 mph 56 % 0.0 in
05:30 20.0 °F 10.7 °F 1013.8 in WSW 3.2 mph 6.4 mph 55 % 0.0 in
10:33 20.4 °F 11.3 °F 1013.8 in WNW 11.1 mph 11.1 mph 56 % 0.0 in
10:34 20.4 °F 11.3 °F 1013.8 in WSW 11.1 mph 11.1 mph 56 % 0.0 in
10:39 20.4 °F 11.1 °F 1014.8 in West 7.4 mph 7.4 mph 55 % 0.0 in
10:44 20.9 °F 11.5 °F 1014.8 in WSW 3.2 mph 3.2 mph 55 % 0.0 in
10:49 20.9 °F 11.5 °F 1014.8 in SW 9.3 mph 9.3 mph 55 % 0.0 in
10:54 20.6 °F 10.9 °F 1014.8 in West 9.3 mph 9.3 mph 54 % 0.0 in
10:59 21.5 °F 11.2 °F 1014.8 in SW 3.7 mph 3.7 mph 52 % 0.0 in
11:04 22.2 °F 12.2 °F 1014.8 in West 10.0 mph 10.0 mph 53 % 0.0 in
11:09 22.3 °F 11.9 °F 1014.8 in NNW 5.8 mph 5.8 mph 52 % 0.0 in
11:14 21.6 °F 11.0 °F 1014.8 in West 7.4 mph 7.4 mph 51 % 0.0 in
11:19 21.9 °F 11.0 °F 1014.8 in NE 5.6 mph 5.6 mph 50 % 0.0 in
11:24 22.3 °F 11.4 °F 1015.8 in WSW 9.7 mph 9.7 mph 50 % 0.0 in
11:29 22.3 °F 11.4 °F 1015.8 in NW 13.0 mph 13.0 mph 50 % 0.0 in
11:34 22.5 °F 11.2 °F 1015.8 in ESE 7.4 mph 7.4 mph 49 % 0.0 in
11:39 22.8 °F 11.5 °F 1015.8 in WSW 5.6 mph 5.6 mph 49 % 0.0 in
11:44 22.9 °F 11.6 °F 1015.8 in WSW 5.6 mph 5.6 mph 49 % 0.0 in
11:49 23.2 °F 11.6 °F 1015.8 in SW 3.7 mph 3.7 mph 48 % 0.0 in
11:54 23.5 °F 11.8 °F 1015.8 in WSW 7.4 mph 7.4 mph 48 % 0.0 in
11:59 23.5 °F 11.6 °F 1015.8 in NNW 5.6 mph 5.6 mph 47 % 0.0 in
12:04 23.1 °F 11.5 °F 1015.8 in WSW 7.6 mph 7.6 mph 48 % 0.0 in
12:09 23.2 °F 11.3 °F 1015.8 in South 5.6 mph 5.6 mph 47 % 0.0 in
12:14 23.5 °F 11.6 °F 1015.8 in WSW 5.6 mph 5.6 mph 47 % 0.0 in
12:19 23.5 °F 11.6 °F 1015.8 in West 5.6 mph 5.6 mph 47 % 0.0 in
12:24 23.7 °F 11.7 °F 1015.8 in SSW 11.9 mph 11.9 mph 47 % 0.0 in
12:29 23.4 °F 11.1 °F 1015.8 in WSW 7.4 mph 7.4 mph 46 % 0.0 in
12:34 23.4 °F 11.1 °F 1015.8 in WSW 9.3 mph 9.3 mph 46 % 0.0 in
12:39 24.0 °F 11.3 °F 1015.8 in SSW 7.6 mph 7.6 mph 45 % 0.0 in
12:44 24.3 °F 11.6 °F 1015.8 in WNW 5.8 mph 6.1 mph 45 % 0.0 in
12:49 24.6 °F 11.6 °F 1015.8 in WSW 4.7 mph 4.7 mph 44 % 0.0 in
12:54 24.9 °F 11.8 °F 1014.8 in WSW 5.6 mph 5.8 mph 44 % 0.0 in
12:59 24.7 °F 11.3 °F 1014.8 in SW 7.4 mph 7.4 mph 43 % 0.0 in
13:04 24.8 °F 11.4 °F 1014.8 in West 9.3 mph 9.3 mph 43 % 0.0 in
13:09 24.6 °F 11.2 °F 1015.8 in WSW 7.4 mph 7.4 mph 43 % 0.0 in
13:14 24.4 °F 10.7 °F 1015.8 in West 9.3 mph 9.3 mph 42 % 0.0 in
13:19 24.5 °F 10.7 °F 1015.8 in SW 7.4 mph 7.4 mph 42 % 0.0 in
13:24 24.5 °F 10.4 °F 1014.8 in SSE 7.4 mph 7.4 mph 41 % 0.0 in
13:29 24.8 °F 10.7 °F 1014.8 in SW 5.6 mph 5.6 mph 41 % 0.0 in
13:34 25.1 °F 10.6 °F 1014.8 in West 16.7 mph 16.7 mph 40 % 0.0 in
13:39 25.6 °F 11.0 °F 1014.8 in WSW 11.1 mph 11.1 mph 40 % 0.0 in
13:44 25.4 °F 10.4 °F 1014.8 in SW 9.3 mph 9.3 mph 39 % 0.0 in
13:49 25.6 °F 10.6 °F 1014.8 in WSW 5.3 mph 5.3 mph 39 % 0.0 in
13:54 25.5 °F 10.5 °F 1014.8 in North 5.6 mph 5.6 mph 39 % 0.0 in
13:59 25.7 °F 10.7 °F 1014.8 in WSW 5.0 mph 5.0 mph 39 % 0.0 in
14:04 26.1 °F 10.7 °F 1014.8 in South 11.1 mph 11.1 mph 38 % 0.0 in
14:09 25.6 °F 10.2 °F 1014.8 in WSW 11.1 mph 11.1 mph 38 % 0.0 in
14:14 25.3 °F 9.9 °F 1014.8 in SW 7.4 mph 7.4 mph 38 % 0.0 in
14:19 25.3 °F 9.9 °F 1014.8 in West 3.7 mph 3.7 mph 38 % 0.0 in
14:24 25.1 °F 9.8 °F 1014.8 in SW 5.6 mph 5.6 mph 38 % 0.0 in
14:29 25.3 °F 9.6 °F 1014.8 in West 4.7 mph 5.3 mph 37 % 0.0 in
14:34 25.0 °F 9.7 °F 1014.8 in WSW 9.3 mph 9.3 mph 38 % 0.0 in
14:39 25.2 °F 9.4 °F 1014.8 in West 5.6 mph 5.6 mph 37 % 0.0 in
14:40 25.3 °F 9.6 °F 1014.8 in WSW 5.6 mph 5.6 mph 37 % 0.0 in
14:45 25.5 °F 9.7 °F 1014.8 in SW 8.7 mph 8.7 mph 37 % 0.0 in
14:50 25.4 °F 9.7 °F 1014.8 in West 5.6 mph 5.6 mph 37 % 0.0 in
14:55 25.3 °F 9.2 °F 1014.8 in South 9.0 mph 9.0 mph 36 % 0.0 in
15:00 25.6 °F 9.8 °F 1014.8 in SSE 5.6 mph 5.6 mph 37 % 0.0 in
15:05 25.9 °F 9.7 °F 1014.8 in West 9.3 mph 9.3 mph 36 % 0.0 in
15:10 26.4 °F 10.1 °F 1014.8 in WSW 6.4 mph 6.4 mph 36 % 0.0 in
15:15 26.5 °F 10.2 °F 1014.8 in West 7.4 mph 7.4 mph 36 % 0.0 in
15:20 26.5 °F 10.2 °F 1014.8 in SSW 5.6 mph 5.6 mph 36 % 0.0 in
15:25 26.5 °F 10.2 °F 1014.8 in WSW 9.5 mph 9.5 mph 36 % 0.0 in
15:30 26.3 °F 9.2 °F 1014.8 in WSW 9.3 mph 9.3 mph 34 % 0.0 in
15:35 26.2 °F 8.7 °F 1014.8 in SSW 7.4 mph 7.4 mph 33 % 0.0 in
15:40 26.2 °F 9.5 °F 1014.8 in SW 5.6 mph 5.6 mph 35 % 0.0 in
15:45 26.4 °F 9.7 °F 1014.8 in West 6.4 mph 6.4 mph 35 % 0.0 in
15:50 26.5 °F 9.8 °F 1013.8 in West 7.4 mph 7.4 mph 35 % 0.0 in
15:55 26.3 °F 9.6 °F 1013.8 in WNW 3.9 mph 3.9 mph 35 % 0.0 in
16:00 26.7 °F 9.9 °F 1013.8 in WNW 9.7 mph 9.7 mph 35 % 0.0 in
16:05 27.0 °F 9.3 °F 1013.8 in West 7.4 mph 7.4 mph 33 % 0.0 in
16:10 26.7 °F 9.1 °F 1013.8 in WNW 5.6 mph 5.6 mph 33 % 0.0 in
16:15 26.7 °F 9.6 °F 1013.8 in NNW 5.6 mph 5.6 mph 34 % 0.0 in
16:20 26.5 °F 9.8 °F 1014.8 in North 5.6 mph 5.6 mph 35 % 0.0 in
16:25 25.5 °F 10.5 °F 1014.8 in North 7.4 mph 7.4 mph 39 % 0.0 in
16:30 25.4 °F 10.8 °F 1014.8 in NW 9.3 mph 9.3 mph 40 % 0.0 in
16:35 25.0 °F 10.8 °F 1014.8 in NNE 11.1 mph 11.1 mph 41 % 0.0 in
16:40 24.9 °F 11.4 °F 1014.8 in ENE 16.7 mph 16.7 mph 43 % 0.0 in
16:45 24.2 °F 11.8 °F 1014.8 in East 11.1 mph 11.1 mph 46 % 0.0 in
16:50 24.3 °F 12.3 °F 1014.8 in SSE 11.1 mph 11.1 mph 47 % 0.0 in
16:51 24.3 °F 12.3 °F 1014.8 in ESE 9.3 mph 9.3 mph 47 % 0.0 in
16:56 24.3 °F 12.3 °F 1014.8 in East 5.6 mph 5.6 mph 47 % 0.0 in
17:01 24.2 °F 12.8 °F 1014.8 in ESE 13.0 mph 13.0 mph 49 % 0.0 in
17:06 24.6 °F 13.2 °F 1014.8 in ESE 5.6 mph 5.6 mph 49 % 0.0 in
17:11 24.0 °F 12.9 °F 1014.8 in ESE 16.7 mph 16.7 mph 50 % 0.0 in
17:16 23.9 °F 12.8 °F 1014.8 in East 13.0 mph 13.0 mph 50 % 0.0 in
17:21 24.5 °F 13.4 °F 1015.8 in SSW 7.4 mph 7.4 mph 50 % 0.0 in
17:26 25.0 °F 13.2 °F 1015.8 in SSW 9.3 mph 9.3 mph 48 % 0.0 in
17:36 25.0 °F 12.9 °F 1015.8 in SSW 12.6 mph 12.6 mph 47 % 0.0 in
17:41 25.3 °F 13.2 °F 1015.8 in NNW 3.7 mph 3.7 mph 47 % 0.0 in
17:46 25.4 °F 13.3 °F 1015.8 in South 6.4 mph 6.4 mph 47 % 0.0 in
17:51 25.3 °F 13.2 °F 1015.8 in SSW 14.8 mph 14.8 mph 47 % 0.0 in
17:56 25.6 °F 13.4 °F 1015.8 in SW 5.8 mph 5.8 mph 47 % 0.0 in
18:01 25.8 °F 13.6 °F 1015.8 in SW 5.6 mph 5.6 mph 47 % 0.0 in
18:06 25.7 °F 13.2 °F 1015.8 in West 9.3 mph 9.3 mph 46 % 0.0 in
18:11 25.8 °F 13.3 °F 1015.8 in South 7.4 mph 7.4 mph 46 % 0.0 in
18:16 25.3 °F 12.8 °F 1015.8 in SW 10.0 mph 10.0 mph 46 % 0.0 in
18:21 25.3 °F 12.8 °F 1015.8 in WSW 8.7 mph 8.7 mph 46 % 0.0 in
18:26 24.6 °F 12.2 °F 1015.8 in South 11.1 mph 11.1 mph 46 % 0.0 in
18:31 24.5 °F 12.4 °F 1015.8 in SSW 9.3 mph 9.3 mph 47 % 0.0 in
18:36 24.3 °F 12.3 °F 1015.8 in SW 11.9 mph 11.9 mph 47 % 0.0 in
18:41 24.4 °F 12.3 °F 1015.8 in WSW 11.1 mph 11.1 mph 47 % 0.0 in
18:46 24.3 °F 12.3 °F 1015.8 in WSW 8.7 mph 8.7 mph 47 % 0.0 in
18:51 24.2 °F 12.2 °F 1015.8 in South 6.4 mph 6.4 mph 47 % 0.0 in
18:56 24.0 °F 12.0 °F 1015.8 in ESE 9.3 mph 9.3 mph 47 % 0.0 in
19:01 23.6 °F 11.9 °F 1015.8 in WSW 11.1 mph 11.1 mph 48 % 0.0 in
19:06 23.4 °F 11.8 °F 1015.8 in WSW 5.6 mph 5.6 mph 48 % 0.0 in
19:10 18.5 °F 14.0 °F 1019.9 in NNE 1.6 mph 1.6 mph 75 % 0.0 in
19:11 23.3 °F 11.7 °F 1015.8 in WSW 6.1 mph 6.1 mph 48 % 0.0 in
19:16 23.1 °F 11.8 °F 1015.8 in SW 11.4 mph 11.4 mph 49 % 0.0 in
19:20 18.4 °F 13.9 °F 1019.9 in NNE 1.6 mph 1.6 mph 75 % 0.0 in
19:21 22.7 °F 11.7 °F 1016.8 in SW 13.0 mph 13.0 mph 50 % 0.0 in
19:26 22.5 °F 11.8 °F 1016.8 in SSW 5.6 mph 5.6 mph 51 % 0.0 in
19:30 18.3 °F 14.0 °F 1019.9 in Calm   1.6 mph 76 % 0.0 in
19:31 22.4 °F 12.1 °F 1016.8 in SSW 7.4 mph 7.4 mph 52 % 0.0 in
19:36 22.3 °F 11.9 °F 1016.8 in South 11.1 mph 11.1 mph 52 % 0.0 in
19:40 18.2 °F 13.9 °F 1019.9 in Calm     76 % 0.0 in
19:41 22.0 °F 12.0 °F 1016.8 in SW 7.4 mph 7.4 mph 53 % 0.0 in
19:46 21.8 °F 12.1 °F 1016.8 in SW 9.3 mph 9.3 mph 54 % 0.0 in
19:50 18.2 °F 14.1 °F 1019.9 in Calm     77 % 0.0 in
19:51 21.7 °F 12.0 °F 1017.8 in SW 7.4 mph 7.4 mph 54 % 0.0 in
19:56 21.5 °F 12.3 °F 1017.8 in South 1.9 mph   56 % 0.0 in
20:00 18.2 °F 14.1 °F 1019.9 in Calm     77 % 0.0 in
20:01 21.5 °F 12.3 °F 1017.8 in West 5.6 mph 5.6 mph 56 % 0.0 in
20:06 21.3 °F 12.2 °F 1017.8 in SSW 5.6 mph 5.6 mph 56 % 0.0 in
20:10 18.2 °F 14.1 °F 1019.9 in Calm     77 % 0.0 in
20:11 21.1 °F 12.0 °F 1017.8 in WSW 4.2 mph 4.2 mph 56 % 0.0 in
20:16 21.0 °F 11.9 °F 1017.8 in SSW 5.6 mph 5.6 mph 56 % 0.0 in
20:20 18.3 °F 14.2 °F 1019.9 in Calm     77 % 0.0 in
20:21 20.9 °F 12.3 °F 1017.8 in Calm     58 % 0.0 in
20:26 20.8 °F 12.2 °F 1017.8 in WSW 5.6 mph 5.6 mph 58 % 0.0 in
20:30 18.4 °F 14.3 °F 1019.9 in Calm   1.6 mph 77 % 0.0 in
20:31 20.7 °F 12.1 °F 1017.8 in WSW 3.7 mph 3.7 mph 58 % 0.0 in
20:36 20.6 °F 12.1 °F 1017.8 in West 3.7 mph 3.7 mph 58 % 0.0 in
20:40 18.5 °F 14.4 °F 1019.9 in Calm     77 % 0.0 in
20:41 20.5 °F 12.2 °F 1017.8 in SW 3.7 mph 3.7 mph 59 % 0.0 in
20:46 20.4 °F 12.1 °F 1017.8 in SW 1.9 mph 1.9 mph 59 % 0.0 in
20:50 18.5 °F 14.6 °F 1019.9 in Calm   3.2 mph 78 % 0.0 in
20:51 20.3 °F 12.3 °F 1017.8 in SW 1.9 mph 1.9 mph 60 % 0.0 in
20:56 20.2 °F 12.4 °F 1017.8 in Calm     61 % 0.0 in
21:00 18.4 °F 14.5 °F 1019.9 in NNE 3.2 mph 3.2 mph 78 % 0.0 in
21:01 20.1 °F 12.3 °F 1017.8 in WSW 1.9 mph   61 % 0.0 in
21:06 20.1 °F 12.6 °F 1018.8 in WSW 1.9 mph   62 % 0.0 in
21:10 18.3 °F 14.4 °F 1019.9 in NE 1.6 mph 3.2 mph 78 % 0.0 in
21:11 20.0 °F 12.5 °F 1018.8 in Calm     62 % 0.0 in
21:16 19.9 °F 12.9 °F 1018.8 in Calm     64 % 0.0 in
21:20 18.1 °F 14.2 °F 1019.9 in Calm   1.6 mph 78 % 0.0 in
21:21 19.9 °F 12.9 °F 1018.8 in Calm     64 % 0.0 in
21:26 19.9 °F 13.1 °F 1018.8 in South 1.4 mph   65 % 0.0 in
21:30 17.9 °F 14.0 °F 1019.9 in Calm     78 % 0.0 in
21:31 19.8 °F 13.1 °F 1018.8 in Calm     65 % 0.0 in
21:36 19.8 °F 13.1 °F 1018.8 in SSW 1.9 mph 1.9 mph 65 % 0.0 in
21:40 17.7 °F 13.8 °F 1019.9 in Calm     78 % 0.0 in
21:41 19.7 °F 13.2 °F 1018.8 in Calm     66 % 0.0 in
21:46 19.6 °F 13.1 °F 1018.8 in Calm     66 % 0.0 in
21:50 17.6 °F 13.9 °F 1019.9 in Calm     79 % 0.0 in
21:51 19.6 °F 13.3 °F 1018.8 in Calm     67 % 0.0 in
21:56 19.5 °F 13.2 °F 1018.8 in Calm     67 % 0.0 in
22:00 17.6 °F 13.9 °F 1019.9 in Calm     79 % 0.0 in
22:01 19.5 °F 13.4 °F 1018.8 in ESE 1.9 mph   68 % 0.0 in
22:06 19.5 °F 13.7 °F 1018.8 in ESE 1.9 mph   69 % 0.0 in
22:10 17.5 °F 13.8 °F 1019.9 in Calm     79 % 0.0 in
22:11 19.4 °F 13.3 °F 1018.8 in Calm     68 % 0.0 in
22:16 19.3 °F 13.4 °F 1018.8 in Calm     69 % 0.0 in
22:20 17.4 °F 13.9 °F 1019.9 in Calm     80 % 0.0 in
22:21 19.3 °F 13.4 °F 1018.8 in Calm     69 % 0.0 in
22:26 19.2 °F 13.4 °F 1018.8 in Calm     69 % 0.0 in
22:30 17.4 °F 13.9 °F 1019.9 in SSW 1.6 mph 1.6 mph 80 % 0.0 in
22:31 19.2 °F 13.4 °F 1018.8 in Calm     69 % 0.0 in
22:36 19.2 °F 13.4 °F 1019.9 in South 2.3 mph 2.3 mph 69 % 0.0 in
22:40 17.4 °F 14.1 °F 1019.9 in SSE 1.6 mph 1.6 mph 81 % 0.0 in
22:41 19.2 °F 13.6 °F 1019.9 in Calm     70 % 0.0 in
22:46 19.1 °F 13.5 °F 1019.9 in Calm     70 % 0.0 in
22:50 17.3 °F 14.0 °F 1019.9 in ESE 1.6 mph 3.2 mph 81 % 0.0 in
22:51 19.1 °F 13.7 °F 1019.9 in Calm     71 % 0.0 in
22:56 19.1 °F 13.7 °F 1019.9 in Calm     71 % 0.0 in
23:00 17.2 °F 13.9 °F 1019.9 in Calm   3.2 mph 81 % 0.0 in
23:01 19.1 °F 13.7 °F 1019.9 in Calm     71 % 0.0 in
23:06 19.1 °F 13.7 °F 1018.8 in Calm     71 % 0.0 in
23:10 17.0 °F 13.9 °F 1020.9 in Calm   1.6 mph 82 % 0.0 in
23:11 19.1 °F 13.7 °F 1018.8 in Calm     71 % 0.0 in
23:16 19.0 °F 13.8 °F 1018.8 in ESE 1.9 mph   72 % 0.0 in
23:20 16.9 °F 13.8 °F 1020.9 in Calm   1.6 mph 82 % 0.0 in
23:21 19.0 °F 13.8 °F 1019.9 in ENE 2.6 mph   72 % 0.0 in
23:26 18.9 °F 13.9 °F 1019.9 in ENE 3.7 mph 3.7 mph 73 % 0.0 in
23:30 16.9 °F 13.8 °F 1019.9 in Calm   1.6 mph 82 % 0.0 in
23:31 18.8 °F 13.8 °F 1019.9 in NNE 1.9 mph 1.9 mph 73 % 0.0 in
23:36 18.8 °F 13.8 °F 1019.9 in NNE 3.7 mph   73 % 0.0 in
23:40 16.8 °F 13.9 °F 1019.9 in Calm     83 % 0.0 in
23:41 18.7 °F 13.8 °F 1019.9 in Calm     73 % 0.0 in
23:46 18.6 °F 13.9 °F 1019.9 in Calm     74 % 0.0 in
23:50 16.8 °F 13.9 °F 1019.9 in NNW 3.2 mph 4.8 mph 83 % 0.0 in
23:51 18.5 °F 13.8 °F 1019.9 in Calm     74 % 0.0 in
23:56 18.5 °F 13.8 °F 1019.9 in NNE 3.7 mph 3.7 mph 74 % 0.0 in
Meteo Sesrovires
Elogis d' Weather Underground - 2 mb

Guio original per  Jim McMurry - jmcmurry@mwt.net Adaptat per a la plantilla per  Wim van der Kuil - Leuven-Template.eu

Trobareu la nostra informacio del temps tambe a:

Weather Underground

AWEKAS